Welcome to La Porte Aviation Services!

An aviation adventure awaits

Current Weather Conditions

Available data for KPPO from the past 2 hours
LA PORTE, IN
Metar
KPPO 182015Z AUTO 35010G14KT 10SM CLR 28/17 A3015 RMK AO2 T02760172

20:15 UTC

Wind: 350° 10kt

Visibility: 10 SM

Sky:

Temp: 28 deg C / 82.4 deg F

Dewpoint: 17 deg C / 62.6 deg F

Pressure: 30.15 inHg

Pireps (10)
ORD UA /OV FWA/TM 2025/FL360/TP B757/TB CONS LGT
ORD UA /OV MVZ300010/TM 1958/FL330/TP A321/TB CONS LGT
ORD UA /OV OXI245025/TM 1933/FL390/TP A320/TB CONS LGT
FWA UA /OV OLK/TM 1920/FL330/TP B752/TB CONS LGT OCNL MOD CHOP
OKK UA /OV OKK180010/TM 1915/FL320/TP B752/TB MOD
OXI UA /OV OXI360010/TM 1905/FL360/TP B737/TB CONS LGT OCNL MOD CHOP
JOT UA /OV JOT180030/TM 1905/FL300/TP A320/TB OCNL LGT CHOP
OKK UA /OV OKK/TM 1905/FL220/TP A319/TB MOD CHOP
BIV UA /OV PMM330030/TM 1855/FL370/TP E75L/TB CONS LGT OCNL MOD CHOP
SBN UA /OV GIJ/TM 1843/FL400/TP B737/TB CONS LGT-OCNL MOD CHOP

Connect with us on Facebook!

Facebook By Weblizar Powered By Weblizar